sensor_id;sensor_type;location;lat;lon;timestamp;P1;durP1;ratioP1;P2;durP2;ratioP2
50781;SDS011;36749;37.428;-121.972;2022-09-11T00:01:04;20.83;;;8.10;;
50781;SDS011;36749;37.428;-121.972;2022-09-11T00:03:31;21.50;;;8.82;;
50781;SDS011;36749;37.428;-121.972;2022-09-11T00:06:05;17.85;;;8.32;;
50781;SDS011;36749;37.428;-121.972;2022-09-11T00:08:33;17.13;;;8.32;;
50781;SDS011;36749;37.428;-121.972;2022-09-11T00:11:03;21.58;;;8.52;;
50781;SDS011;36749;37.428;-121.972;2022-09-11T00:13:32;19.58;;;8.55;;
50781;SDS011;36749;37.428;-121.972;2022-09-11T00:16:00;18.40;;;7.90;;
50781;SDS011;36749;37.428;-121.972;2022-09-11T00:18:30;20.15;;;8.52;;
50781;SDS011;36749;37.428;-121.972;2022-09-11T00:21:00;18.92;;;7.90;;
50781;SDS011;36749;37.428;-121.972;2022-09-11T00:23:27;18.90;;;8.93;;
50781;SDS011;36749;37.428;-121.972;2022-09-11T00:25:54;17.55;;;7.88;;
50781;SDS011;36749;37.428;-121.972;2022-09-11T00:28:21;16.75;;;8.15;;
50781;SDS011;36749;37.428;-121.972;2022-09-11T00:30:58;21.25;;;8.68;;
50781;SDS011;36749;37.428;-121.972;2022-09-11T00:33:29;18.20;;;8.23;;
50781;SDS011;36749;37.428;-121.972;2022-09-11T00:35:58;19.63;;;8.43;;
50781;SDS011;36749;37.428;-121.972;2022-09-11T00:38:26;20.08;;;8.35;;
50781;SDS011;36749;37.428;-121.972;2022-09-11T00:40:54;15.77;;;7.75;;
50781;SDS011;36749;37.428;-121.972;2022-09-11T00:43:22;17.50;;;7.50;;
50781;SDS011;36749;37.428;-121.972;2022-09-11T00:45:54;14.18;;;7.15;;
50781;SDS011;36749;37.428;-121.972;2022-09-11T00:48:25;15.98;;;7.40;;
50781;SDS011;36749;37.428;-121.972;2022-09-11T00:50:54;9.70;;;5.60;;
50781;SDS011;36749;37.428;-121.972;2022-09-11T00:53:22;11.57;;;5.68;;
50781;SDS011;36749;37.428;-121.972;2022-09-11T00:55:51;12.63;;;5.72;;
50781;SDS011;36749;37.428;-121.972;2022-09-11T00:58:21;17.92;;;5.70;;
50781;SDS011;36749;37.428;-121.972;2022-09-11T01:00:49;25.42;;;6.95;;
50781;SDS011;36749;37.428;-121.972;2022-09-11T01:03:17;28.80;;;6.78;;
50781;SDS011;36749;37.428;-121.972;2022-09-11T01:05:43;25.50;;;6.97;;
50781;SDS011;36749;37.428;-121.972;2022-09-11T01:08:09;27.20;;;7.95;;
50781;SDS011;36749;37.428;-121.972;2022-09-11T01:10:41;23.58;;;6.22;;
50781;SDS011;36749;37.428;-121.972;2022-09-11T01:16:18;28.33;;;7.90;;
50781;SDS011;36749;37.428;-121.972;2022-09-11T01:23:59;31.88;;;7.50;;
50781;SDS011;36749;37.428;-121.972;2022-09-11T01:29:38;28.10;;;8.05;;
50781;SDS011;36749;37.428;-121.972;2022-09-11T01:32:13;30.10;;;8.57;;
50781;SDS011;36749;37.428;-121.972;2022-09-11T01:37:16;28.05;;;7.68;;
50781;SDS011;36749;37.428;-121.972;2022-09-11T01:39:49;31.00;;;8.18;;
50781;SDS011;36749;37.428;-121.972;2022-09-11T01:42:24;30.80;;;8.15;;
50781;SDS011;36749;37.428;-121.972;2022-09-11T01:44:53;28.65;;;8.75;;
50781;SDS011;36749;37.428;-121.972;2022-09-11T01:47:22;34.65;;;8.60;;
50781;SDS011;36749;37.428;-121.972;2022-09-11T01:50:10;32.72;;;8.43;;
50781;SDS011;36749;37.428;-121.972;2022-09-11T01:52:38;24.65;;;7.50;;
50781;SDS011;36749;37.428;-121.972;2022-09-11T01:55:11;34.03;;;8.70;;
50781;SDS011;36749;37.428;-121.972;2022-09-11T01:57:51;28.77;;;8.35;;
50781;SDS011;36749;37.428;-121.972;2022-09-11T02:00:21;30.92;;;7.90;;
50781;SDS011;36749;37.428;-121.972;2022-09-11T02:02:48;31.48;;;8.70;;
50781;SDS011;36749;37.428;-121.972;2022-09-11T02:05:20;30.92;;;7.90;;
50781;SDS011;36749;37.428;-121.972;2022-09-11T02:07:54;31.90;;;8.90;;
50781;SDS011;36749;37.428;-121.972;2022-09-11T02:10:24;26.92;;;7.75;;
50781;SDS011;36749;37.428;-121.972;2022-09-11T02:13:04;34.85;;;7.90;;
50781;SDS011;36749;37.428;-121.972;2022-09-11T02:15:45;33.92;;;9.07;;
50781;SDS011;36749;37.428;-121.972;2022-09-11T02:18:19;34.40;;;7.78;;
50781;SDS011;36749;37.428;-121.972;2022-09-11T02:20:51;34.22;;;9.57;;
50781;SDS011;36749;37.428;-121.972;2022-09-11T02:23:18;39.10;;;9.60;;
50781;SDS011;36749;37.428;-121.972;2022-09-11T02:25:44;29.63;;;8.50;;
50781;SDS011;36749;37.428;-121.972;2022-09-11T02:28:12;33.40;;;8.88;;
50781;SDS011;36749;37.428;-121.972;2022-09-11T02:30:38;30.55;;;8.15;;
50781;SDS011;36749;37.428;-121.972;2022-09-11T02:33:05;33.00;;;9.05;;
50781;SDS011;36749;37.428;-121.972;2022-09-11T02:35:50;32.17;;;8.90;;
50781;SDS011;36749;37.428;-121.972;2022-09-11T02:38:27;39.38;;;9.95;;
50781;SDS011;36749;37.428;-121.972;2022-09-11T02:40:59;23.92;;;8.85;;
50781;SDS011;36749;37.428;-121.972;2022-09-11T02:43:45;27.27;;;7.55;;
50781;SDS011;36749;37.428;-121.972;2022-09-11T02:49:19;30.17;;;9.05;;
50781;SDS011;36749;37.428;-121.972;2022-09-11T02:57:34;31.83;;;9.23;;
50781;SDS011;36749;37.428;-121.972;2022-09-11T03:00:08;26.80;;;8.05;;
50781;SDS011;36749;37.428;-121.972;2022-09-11T03:02:35;25.63;;;8.50;;
50781;SDS011;36749;37.428;-121.972;2022-09-11T03:05:05;27.02;;;8.90;;
50781;SDS011;36749;37.428;-121.972;2022-09-11T03:07:32;29.33;;;8.80;;
50781;SDS011;36749;37.428;-121.972;2022-09-11T03:09:58;25.23;;;7.68;;
50781;SDS011;36749;37.428;-121.972;2022-09-11T03:12:24;30.88;;;9.32;;
50781;SDS011;36749;37.428;-121.972;2022-09-11T03:14:53;28.70;;;8.45;;
50781;SDS011;36749;37.428;-121.972;2022-09-11T03:17:21;26.33;;;8.70;;
50781;SDS011;36749;37.428;-121.972;2022-09-11T03:19:48;29.48;;;8.27;;
50781;SDS011;36749;37.428;-121.972;2022-09-11T03:22:14;23.88;;;8.18;;
50781;SDS011;36749;37.428;-121.972;2022-09-11T03:24:40;28.35;;;7.63;;
50781;SDS011;36749;37.428;-121.972;2022-09-11T03:27:07;28.75;;;8.70;;
50781;SDS011;36749;37.428;-121.972;2022-09-11T03:29:33;28.73;;;8.88;;
50781;SDS011;36749;37.428;-121.972;2022-09-11T03:31:59;23.75;;;7.85;;
50781;SDS011;36749;37.428;-121.972;2022-09-11T03:34:25;34.55;;;9.73;;
50781;SDS011;36749;37.428;-121.972;2022-09-11T03:36:51;29.23;;;8.93;;
50781;SDS011;36749;37.428;-121.972;2022-09-11T03:39:17;27.95;;;8.10;;
50781;SDS011;36749;37.428;-121.972;2022-09-11T03:41:44;23.67;;;7.88;;
50781;SDS011;36749;37.428;-121.972;2022-09-11T03:44:10;26.98;;;8.30;;
50781;SDS011;36749;37.428;-121.972;2022-09-11T03:46:39;30.75;;;9.25;;
50781;SDS011;36749;37.428;-121.972;2022-09-11T03:49:05;32.08;;;10.27;;
50781;SDS011;36749;37.428;-121.972;2022-09-11T03:51:32;32.22;;;9.88;;
50781;SDS011;36749;37.428;-121.972;2022-09-11T03:54:00;28.30;;;9.68;;
50781;SDS011;36749;37.428;-121.972;2022-09-11T03:56:26;27.83;;;8.32;;
50781;SDS011;36749;37.428;-121.972;2022-09-11T03:58:56;30.13;;;8.68;;
50781;SDS011;36749;37.428;-121.972;2022-09-11T04:01:24;28.30;;;9.45;;
50781;SDS011;36749;37.428;-121.972;2022-09-11T04:03:51;29.48;;;8.80;;
50781;SDS011;36749;37.428;-121.972;2022-09-11T04:06:17;29.98;;;8.98;;
50781;SDS011;36749;37.428;-121.972;2022-09-11T04:08:44;29.80;;;8.52;;
50781;SDS011;36749;37.428;-121.972;2022-09-11T04:11:11;30.55;;;9.48;;
50781;SDS011;36749;37.428;-121.972;2022-09-11T04:13:38;37.45;;;9.65;;
50781;SDS011;36749;37.428;-121.972;2022-09-11T04:16:07;31.20;;;9.75;;
50781;SDS011;36749;37.428;-121.972;2022-09-11T04:18:37;40.22;;;11.77;;
50781;SDS011;36749;37.428;-121.972;2022-09-11T04:21:05;33.17;;;9.60;;
50781;SDS011;36749;37.428;-121.972;2022-09-11T04:23:36;35.90;;;9.68;;
50781;SDS011;36749;37.428;-121.972;2022-09-11T04:26:04;28.58;;;9.05;;
50781;SDS011;36749;37.428;-121.972;2022-09-11T04:28:41;32.72;;;9.48;;
50781;SDS011;36749;37.428;-121.972;2022-09-11T04:31:08;31.48;;;9.48;;
50781;SDS011;36749;37.428;-121.972;2022-09-11T04:33:34;36.35;;;10.13;;
50781;SDS011;36749;37.428;-121.972;2022-09-11T04:36:07;41.50;;;10.40;;
50781;SDS011;36749;37.428;-121.972;2022-09-11T04:38:54;30.35;;;8.60;;
50781;SDS011;36749;37.428;-121.972;2022-09-11T04:41:22;30.95;;;9.00;;
50781;SDS011;36749;37.428;-121.972;2022-09-11T04:43:52;32.88;;;9.32;;
50781;SDS011;36749;37.428;-121.972;2022-09-11T04:46:20;35.83;;;9.02;;
50781;SDS011;36749;37.428;-121.972;2022-09-11T04:48:49;35.97;;;9.90;;
50781;SDS011;36749;37.428;-121.972;2022-09-11T04:53:46;37.42;;;9.77;;
50781;SDS011;36749;37.428;-121.972;2022-09-11T04:56:12;34.15;;;10.05;;
50781;SDS011;36749;37.428;-121.972;2022-09-11T04:58:39;37.55;;;8.73;;
50781;SDS011;36749;37.428;-121.972;2022-09-11T05:01:09;39.28;;;10.98;;
50781;SDS011;36749;37.428;-121.972;2022-09-11T05:03:37;34.30;;;10.88;;
50781;SDS011;36749;37.428;-121.972;2022-09-11T05:06:06;38.15;;;10.48;;
50781;SDS011;36749;37.428;-121.972;2022-09-11T05:08:33;33.78;;;10.48;;
50781;SDS011;36749;37.428;-121.972;2022-09-11T05:11:01;34.85;;;10.63;;
50781;SDS011;36749;37.428;-121.972;2022-09-11T05:13:30;34.58;;;10.15;;
50781;SDS011;36749;37.428;-121.972;2022-09-11T05:16:01;42.42;;;9.98;;
50781;SDS011;36749;37.428;-121.972;2022-09-11T05:18:28;33.83;;;9.55;;
50781;SDS011;36749;37.428;-121.972;2022-09-11T05:21:01;34.80;;;9.75;;
50781;SDS011;36749;37.428;-121.972;2022-09-11T05:23:29;32.22;;;9.30;;
50781;SDS011;36749;37.428;-121.972;2022-09-11T05:25:57;36.67;;;9.68;;
50781;SDS011;36749;37.428;-121.972;2022-09-11T05:28:25;36.72;;;10.60;;
50781;SDS011;36749;37.428;-121.972;2022-09-11T05:30:52;36.70;;;9.73;;
50781;SDS011;36749;37.428;-121.972;2022-09-11T05:33:19;39.28;;;10.55;;
50781;SDS011;36749;37.428;-121.972;2022-09-11T05:35:48;40.28;;;11.70;;
50781;SDS011;36749;37.428;-121.972;2022-09-11T05:38:18;38.03;;;10.30;;
50781;SDS011;36749;37.428;-121.972;2022-09-11T05:40:45;34.72;;;11.35;;
50781;SDS011;36749;37.428;-121.972;2022-09-11T05:43:14;36.25;;;10.00;;
50781;SDS011;36749;37.428;-121.972;2022-09-11T05:45:41;41.78;;;12.02;;
50781;SDS011;36749;37.428;-121.972;2022-09-11T05:48:08;43.15;;;14.38;;
50781;SDS011;36749;37.428;-121.972;2022-09-11T05:50:35;43.13;;;12.70;;
50781;SDS011;36749;37.428;-121.972;2022-09-11T05:53:02;43.55;;;13.02;;
50781;SDS011;36749;37.428;-121.972;2022-09-11T05:55:32;41.40;;;11.63;;
50781;SDS011;36749;37.428;-121.972;2022-09-11T05:58:02;41.90;;;10.85;;
50781;SDS011;36749;37.428;-121.972;2022-09-11T06:00:28;43.28;;;11.60;;
50781;SDS011;36749;37.428;-121.972;2022-09-11T06:02:54;39.33;;;10.40;;
50781;SDS011;36749;37.428;-121.972;2022-09-11T06:05:20;40.33;;;10.35;;
50781;SDS011;36749;37.428;-121.972;2022-09-11T06:07:47;37.28;;;10.32;;
50781;SDS011;36749;37.428;-121.972;2022-09-11T06:10:13;33.67;;;10.63;;
50781;SDS011;36749;37.428;-121.972;2022-09-11T06:12:39;40.35;;;11.02;;
50781;SDS011;36749;37.428;-121.972;2022-09-11T06:15:05;37.97;;;10.98;;
50781;SDS011;36749;37.428;-121.972;2022-09-11T06:17:32;40.08;;;11.40;;
50781;SDS011;36749;37.428;-121.972;2022-09-11T06:19:58;37.47;;;10.65;;
50781;SDS011;36749;37.428;-121.972;2022-09-11T06:22:24;37.15;;;10.45;;
50781;SDS011;36749;37.428;-121.972;2022-09-11T06:24:51;34.50;;;10.30;;
50781;SDS011;36749;37.428;-121.972;2022-09-11T06:27:17;36.65;;;10.82;;
50781;SDS011;36749;37.428;-121.972;2022-09-11T06:29:44;38.08;;;9.98;;
50781;SDS011;36749;37.428;-121.972;2022-09-11T06:32:10;33.72;;;10.30;;
50781;SDS011;36749;37.428;-121.972;2022-09-11T06:34:36;34.15;;;10.60;;
50781;SDS011;36749;37.428;-121.972;2022-09-11T06:37:02;36.55;;;10.48;;
50781;SDS011;36749;37.428;-121.972;2022-09-11T06:39:28;47.03;;;10.40;;
50781;SDS011;36749;37.428;-121.972;2022-09-11T06:41:54;33.22;;;11.05;;
50781;SDS011;36749;37.428;-121.972;2022-09-11T06:44:21;38.40;;;10.32;;
50781;SDS011;36749;37.428;-121.972;2022-09-11T06:46:47;34.85;;;9.52;;
50781;SDS011;36749;37.428;-121.972;2022-09-11T06:49:13;36.28;;;10.13;;
50781;SDS011;36749;37.428;-121.972;2022-09-11T06:51:39;42.45;;;11.07;;
50781;SDS011;36749;37.428;-121.972;2022-09-11T06:54:05;47.05;;;11.50;;
50781;SDS011;36749;37.428;-121.972;2022-09-11T06:56:32;30.63;;;10.50;;
50781;SDS011;36749;37.428;-121.972;2022-09-11T06:58:58;42.90;;;11.40;;
50781;SDS011;36749;37.428;-121.972;2022-09-11T07:01:26;37.15;;;11.85;;
50781;SDS011;36749;37.428;-121.972;2022-09-11T07:03:53;33.22;;;11.32;;
50781;SDS011;36749;37.428;-121.972;2022-09-11T07:06:21;36.40;;;12.25;;
50781;SDS011;36749;37.428;-121.972;2022-09-11T07:08:52;35.47;;;11.45;;
50781;SDS011;36749;37.428;-121.972;2022-09-11T07:11:21;38.35;;;11.60;;
50781;SDS011;36749;37.428;-121.972;2022-09-11T07:13:49;38.08;;;11.27;;
50781;SDS011;36749;37.428;-121.972;2022-09-11T07:16:16;38.08;;;10.75;;
50781;SDS011;36749;37.428;-121.972;2022-09-11T07:18:42;39.75;;;11.50;;
50781;SDS011;36749;37.428;-121.972;2022-09-11T07:21:11;37.85;;;11.63;;
50781;SDS011;36749;37.428;-121.972;2022-09-11T07:23:38;40.58;;;12.55;;
50781;SDS011;36749;37.428;-121.972;2022-09-11T07:26:09;47.08;;;13.60;;
50781;SDS011;36749;37.428;-121.972;2022-09-11T07:28:36;37.03;;;12.35;;
50781;SDS011;36749;37.428;-121.972;2022-09-11T07:31:11;39.45;;;11.40;;
50781;SDS011;36749;37.428;-121.972;2022-09-11T07:33:39;47.38;;;12.88;;
50781;SDS011;36749;37.428;-121.972;2022-09-11T07:36:10;37.22;;;12.20;;
50781;SDS011;36749;37.428;-121.972;2022-09-11T07:38:38;34.80;;;11.13;;
50781;SDS011;36749;37.428;-121.972;2022-09-11T07:41:05;48.20;;;11.88;;
50781;SDS011;36749;37.428;-121.972;2022-09-11T07:43:34;31.67;;;9.90;;
50781;SDS011;36749;37.428;-121.972;2022-09-11T07:46:01;39.10;;;10.30;;
50781;SDS011;36749;37.428;-121.972;2022-09-11T07:48:28;38.65;;;11.52;;
50781;SDS011;36749;37.428;-121.972;2022-09-11T07:50:58;31.35;;;9.88;;
50781;SDS011;36749;37.428;-121.972;2022-09-11T07:53:42;40.25;;;10.30;;
50781;SDS011;36749;37.428;-121.972;2022-09-11T07:56:11;38.78;;;12.93;;
50781;SDS011;36749;37.428;-121.972;2022-09-11T07:58:41;35.53;;;11.23;;
50781;SDS011;36749;37.428;-121.972;2022-09-11T08:01:09;36.95;;;10.48;;
50781;SDS011;36749;37.428;-121.972;2022-09-11T08:03:37;33.95;;;10.73;;
50781;SDS011;36749;37.428;-121.972;2022-09-11T08:06:04;39.90;;;10.20;;
50781;SDS011;36749;37.428;-121.972;2022-09-11T08:08:32;35.15;;;11.13;;
50781;SDS011;36749;37.428;-121.972;2022-09-11T08:11:03;33.75;;;10.45;;
50781;SDS011;36749;37.428;-121.972;2022-09-11T08:13:30;34.75;;;10.85;;
50781;SDS011;36749;37.428;-121.972;2022-09-11T08:15:57;34.05;;;11.27;;
50781;SDS011;36749;37.428;-121.972;2022-09-11T08:18:23;26.30;;;9.60;;
50781;SDS011;36749;37.428;-121.972;2022-09-11T08:20:50;29.98;;;9.75;;
50781;SDS011;36749;37.428;-121.972;2022-09-11T08:23:16;34.35;;;9.95;;
50781;SDS011;36749;37.428;-121.972;2022-09-11T08:25:42;35.75;;;10.75;;
50781;SDS011;36749;37.428;-121.972;2022-09-11T08:28:09;32.55;;;8.98;;
50781;SDS011;36749;37.428;-121.972;2022-09-11T08:30:35;25.13;;;8.57;;
50781;SDS011;36749;37.428;-121.972;2022-09-11T08:33:05;29.25;;;8.88;;
50781;SDS011;36749;37.428;-121.972;2022-09-11T08:35:32;31.67;;;9.52;;
50781;SDS011;36749;37.428;-121.972;2022-09-11T08:38:01;35.78;;;10.05;;
50781;SDS011;36749;37.428;-121.972;2022-09-11T08:40:28;31.85;;;10.27;;
50781;SDS011;36749;37.428;-121.972;2022-09-11T08:42:59;34.38;;;10.27;;
50781;SDS011;36749;37.428;-121.972;2022-09-11T08:45:29;29.83;;;10.52;;
50781;SDS011;36749;37.428;-121.972;2022-09-11T08:47:58;32.13;;;10.77;;
50781;SDS011;36749;37.428;-121.972;2022-09-11T08:50:26;32.72;;;10.38;;
50781;SDS011;36749;37.428;-121.972;2022-09-11T08:53:16;31.45;;;10.48;;
50781;SDS011;36749;37.428;-121.972;2022-09-11T08:55:53;29.33;;;10.25;;
50781;SDS011;36749;37.428;-121.972;2022-09-11T09:01:22;35.38;;;11.25;;
50781;SDS011;36749;37.428;-121.972;2022-09-11T09:12:36;34.67;;;11.35;;
50781;SDS011;36749;37.428;-121.972;2022-09-11T09:20:28;36.53;;;11.30;;
50781;SDS011;36749;37.428;-121.972;2022-09-11T09:23:00;31.10;;;11.77;;
50781;SDS011;36749;37.428;-121.972;2022-09-11T09:25:29;40.42;;;10.30;;
50781;SDS011;36749;37.428;-121.972;2022-09-11T09:28:06;33.97;;;11.95;;
50781;SDS011;36749;37.428;-121.972;2022-09-11T09:30:36;39.40;;;11.52;;
50781;SDS011;36749;37.428;-121.972;2022-09-11T09:35:43;29.08;;;10.27;;
50781;SDS011;36749;37.428;-121.972;2022-09-11T09:38:13;30.90;;;11.20;;
50781;SDS011;36749;37.428;-121.972;2022-09-11T09:40:55;29.45;;;11.45;;
50781;SDS011;36749;37.428;-121.972;2022-09-11T09:49:09;32.30;;;10.98;;
50781;SDS011;36749;37.428;-121.972;2022-09-11T09:51:37;32.80;;;10.68;;
50781;SDS011;36749;37.428;-121.972;2022-09-11T09:54:06;31.55;;;10.55;;
50781;SDS011;36749;37.428;-121.972;2022-09-11T09:56:38;33.25;;;10.15;;
50781;SDS011;36749;37.428;-121.972;2022-09-11T10:01:51;29.48;;;9.43;;
50781;SDS011;36749;37.428;-121.972;2022-09-11T10:04:22;29.02;;;11.10;;
50781;SDS011;36749;37.428;-121.972;2022-09-11T10:06:50;24.75;;;10.00;;
50781;SDS011;36749;37.428;-121.972;2022-09-11T10:09:28;30.55;;;10.05;;
50781;SDS011;36749;37.428;-121.972;2022-09-11T10:12:05;27.85;;;9.50;;
50781;SDS011;36749;37.428;-121.972;2022-09-11T10:14:42;27.70;;;10.43;;
50781;SDS011;36749;37.428;-121.972;2022-09-11T10:17:19;27.55;;;10.43;;
50781;SDS011;36749;37.428;-121.972;2022-09-11T10:19:46;32.47;;;10.57;;
50781;SDS011;36749;37.428;-121.972;2022-09-11T10:22:23;34.53;;;11.25;;
50781;SDS011;36749;37.428;-121.972;2022-09-11T10:25:46;26.83;;;10.40;;
50781;SDS011;36749;37.428;-121.972;2022-09-11T10:28:04;30.05;;;10.18;;
50781;SDS011;36749;37.428;-121.972;2022-09-11T10:30:35;25.52;;;9.68;;
50781;SDS011;36749;37.428;-121.972;2022-09-11T10:36:12;30.95;;;10.88;;
50781;SDS011;36749;37.428;-121.972;2022-09-11T10:38:47;33.80;;;10.13;;
50781;SDS011;36749;37.428;-121.972;2022-09-11T10:41:20;32.08;;;11.25;;
50781;SDS011;36749;37.428;-121.972;2022-09-11T10:46:22;26.92;;;9.85;;
50781;SDS011;36749;37.428;-121.972;2022-09-11T10:51:29;29.30;;;10.30;;
50781;SDS011;36749;37.428;-121.972;2022-09-11T10:59:35;39.13;;;10.43;;
50781;SDS011;36749;37.428;-121.972;2022-09-11T11:02:12;29.98;;;11.32;;
50781;SDS011;36749;37.428;-121.972;2022-09-11T11:04:44;33.08;;;10.07;;
50781;SDS011;36749;37.428;-121.972;2022-09-11T11:07:54;32.67;;;10.23;;
50781;SDS011;36749;37.428;-121.972;2022-09-11T11:15:58;33.03;;;9.43;;
50781;SDS011;36749;37.428;-121.972;2022-09-11T11:18:52;32.10;;;9.65;;
50781;SDS011;36749;37.428;-121.972;2022-09-11T11:24:42;24.55;;;8.95;;
50781;SDS011;36749;37.428;-121.972;2022-09-11T11:38:28;28.27;;;9.57;;
50781;SDS011;36749;37.428;-121.972;2022-09-11T11:41:09;30.25;;;9.38;;
50781;SDS011;36749;37.428;-121.972;2022-09-11T11:43:39;28.63;;;9.05;;
50781;SDS011;36749;37.428;-121.972;2022-09-11T11:49:22;27.60;;;9.43;;
50781;SDS011;36749;37.428;-121.972;2022-09-11T11:51:49;31.27;;;11.00;;
50781;SDS011;36749;37.428;-121.972;2022-09-11T11:54:26;35.63;;;9.60;;
50781;SDS011;36749;37.428;-121.972;2022-09-11T11:57:05;29.40;;;10.18;;
50781;SDS011;36749;37.428;-121.972;2022-09-11T11:59:37;29.63;;;10.80;;
50781;SDS011;36749;37.428;-121.972;2022-09-11T12:09:54;31.42;;;9.82;;
50781;SDS011;36749;37.428;-121.972;2022-09-11T12:12:23;27.70;;;9.85;;
50781;SDS011;36749;37.428;-121.972;2022-09-11T12:14:53;30.95;;;10.13;;
50781;SDS011;36749;37.428;-121.972;2022-09-11T12:17:28;29.48;;;9.45;;
50781;SDS011;36749;37.428;-121.972;2022-09-11T12:22:41;33.08;;;10.75;;
50781;SDS011;36749;37.428;-121.972;2022-09-11T12:32:43;32.33;;;9.90;;
50781;SDS011;36749;37.428;-121.972;2022-09-11T12:35:21;33.75;;;10.73;;
50781;SDS011;36749;37.428;-121.972;2022-09-11T12:41:10;31.95;;;11.35;;
50781;SDS011;36749;37.428;-121.972;2022-09-11T12:46:03;37.38;;;11.18;;
50781;SDS011;36749;37.428;-121.972;2022-09-11T12:48:37;35.08;;;11.25;;
50781;SDS011;36749;37.428;-121.972;2022-09-11T12:51:21;33.03;;;10.45;;
50781;SDS011;36749;37.428;-121.972;2022-09-11T12:53:54;37.90;;;11.18;;
50781;SDS011;36749;37.428;-121.972;2022-09-11T12:56:25;32.28;;;11.50;;
50781;SDS011;36749;37.428;-121.972;2022-09-11T12:58:57;32.08;;;10.02;;
50781;SDS011;36749;37.428;-121.972;2022-09-11T13:01:28;29.15;;;10.63;;
50781;SDS011;36749;37.428;-121.972;2022-09-11T13:04:05;36.15;;;10.25;;
50781;SDS011;36749;37.428;-121.972;2022-09-11T13:06:47;35.58;;;9.85;;
50781;SDS011;36749;37.428;-121.972;2022-09-11T13:17:14;32.50;;;10.77;;
50781;SDS011;36749;37.428;-121.972;2022-09-11T13:22:33;30.38;;;10.05;;
50781;SDS011;36749;37.428;-121.972;2022-09-11T13:25:03;35.78;;;10.35;;
50781;SDS011;36749;37.428;-121.972;2022-09-11T13:27:44;31.17;;;10.48;;
50781;SDS011;36749;37.428;-121.972;2022-09-11T13:30:21;33.92;;;10.02;;
50781;SDS011;36749;37.428;-121.972;2022-09-11T13:32:49;35.17;;;9.88;;
50781;SDS011;36749;37.428;-121.972;2022-09-11T13:35:24;25.05;;;8.88;;
50781;SDS011;36749;37.428;-121.972;2022-09-11T13:37:58;30.33;;;9.57;;
50781;SDS011;36749;37.428;-121.972;2022-09-11T13:40:33;34.28;;;10.60;;
50781;SDS011;36749;37.428;-121.972;2022-09-11T13:43:06;28.65;;;9.93;;
50781;SDS011;36749;37.428;-121.972;2022-09-11T13:45:34;27.77;;;9.98;;
50781;SDS011;36749;37.428;-121.972;2022-09-11T13:48:00;32.00;;;9.70;;
50781;SDS011;36749;37.428;-121.972;2022-09-11T13:50:27;25.23;;;8.98;;
50781;SDS011;36749;37.428;-121.972;2022-09-11T13:52:53;27.13;;;9.20;;
50781;SDS011;36749;37.428;-121.972;2022-09-11T13:55:20;32.13;;;9.82;;
50781;SDS011;36749;37.428;-121.972;2022-09-11T13:57:55;30.40;;;10.15;;
50781;SDS011;36749;37.428;-121.972;2022-09-11T14:00:39;28.70;;;8.95;;
50781;SDS011;36749;37.428;-121.972;2022-09-11T14:03:13;28.10;;;9.65;;
50781;SDS011;36749;37.428;-121.972;2022-09-11T14:05:49;33.67;;;9.52;;
50781;SDS011;36749;37.428;-121.972;2022-09-11T14:10:57;28.40;;;9.73;;
50781;SDS011;36749;37.428;-121.972;2022-09-11T14:21:31;30.55;;;10.38;;
50781;SDS011;36749;37.428;-121.972;2022-09-11T14:23:59;24.83;;;9.30;;
50781;SDS011;36749;37.428;-121.972;2022-09-11T14:29:50;31.63;;;11.10;;
50781;SDS011;36749;37.428;-121.972;2022-09-11T14:35:04;30.15;;;9.93;;
50781;SDS011;36749;37.428;-121.972;2022-09-11T14:37:32;31.73;;;10.68;;
50781;SDS011;36749;37.428;-121.972;2022-09-11T14:40:02;35.83;;;10.38;;
50781;SDS011;36749;37.428;-121.972;2022-09-11T14:42:31;31.52;;;11.23;;
50781;SDS011;36749;37.428;-121.972;2022-09-11T14:45:06;31.00;;;10.80;;
50781;SDS011;36749;37.428;-121.972;2022-09-11T14:47:33;40.38;;;12.30;;
50781;SDS011;36749;37.428;-121.972;2022-09-11T14:50:00;37.35;;;11.65;;
50781;SDS011;36749;37.428;-121.972;2022-09-11T14:52:27;36.72;;;11.15;;
50781;SDS011;36749;37.428;-121.972;2022-09-11T14:54:54;29.15;;;11.02;;
50781;SDS011;36749;37.428;-121.972;2022-09-11T14:57:25;30.10;;;10.00;;
50781;SDS011;36749;37.428;-121.972;2022-09-11T14:59:53;33.38;;;11.32;;
50781;SDS011;36749;37.428;-121.972;2022-09-11T15:02:21;35.03;;;10.77;;
50781;SDS011;36749;37.428;-121.972;2022-09-11T15:04:49;28.95;;;8.73;;
50781;SDS011;36749;37.428;-121.972;2022-09-11T15:07:16;27.25;;;10.35;;
50781;SDS011;36749;37.428;-121.972;2022-09-11T15:09:43;29.75;;;9.93;;
50781;SDS011;36749;37.428;-121.972;2022-09-11T15:12:10;33.20;;;9.68;;
50781;SDS011;36749;37.428;-121.972;2022-09-11T15:14:37;34.53;;;10.70;;
50781;SDS011;36749;37.428;-121.972;2022-09-11T15:17:05;31.92;;;10.20;;
50781;SDS011;36749;37.428;-121.972;2022-09-11T15:19:33;32.72;;;9.85;;
50781;SDS011;36749;37.428;-121.972;2022-09-11T15:22:00;29.40;;;10.15;;
50781;SDS011;36749;37.428;-121.972;2022-09-11T15:24:26;36.25;;;11.50;;
50781;SDS011;36749;37.428;-121.972;2022-09-11T15:26:54;34.75;;;10.52;;
50781;SDS011;36749;37.428;-121.972;2022-09-11T15:29:22;31.08;;;9.77;;
50781;SDS011;36749;37.428;-121.972;2022-09-11T15:31:50;32.08;;;10.52;;
50781;SDS011;36749;37.428;-121.972;2022-09-11T15:34:20;28.00;;;10.82;;
50781;SDS011;36749;37.428;-121.972;2022-09-11T15:36:47;30.50;;;9.77;;
50781;SDS011;36749;37.428;-121.972;2022-09-11T15:39:16;31.70;;;9.90;;
50781;SDS011;36749;37.428;-121.972;2022-09-11T15:41:44;27.15;;;10.60;;
50781;SDS011;36749;37.428;-121.972;2022-09-11T15:44:21;29.13;;;9.50;;
50781;SDS011;36749;37.428;-121.972;2022-09-11T15:46:49;25.33;;;9.73;;
50781;SDS011;36749;37.428;-121.972;2022-09-11T15:49:16;31.70;;;10.20;;
50781;SDS011;36749;37.428;-121.972;2022-09-11T15:51:46;27.13;;;9.85;;
50781;SDS011;36749;37.428;-121.972;2022-09-11T15:54:15;28.00;;;10.90;;
50781;SDS011;36749;37.428;-121.972;2022-09-11T15:56:42;29.77;;;9.88;;
50781;SDS011;36749;37.428;-121.972;2022-09-11T15:59:12;29.00;;;10.00;;
50781;SDS011;36749;37.428;-121.972;2022-09-11T16:01:42;26.38;;;9.18;;
50781;SDS011;36749;37.428;-121.972;2022-09-11T16:04:10;32.00;;;10.45;;
50781;SDS011;36749;37.428;-121.972;2022-09-11T16:06:39;28.02;;;11.18;;
50781;SDS011;36749;37.428;-121.972;2022-09-11T16:09:11;31.92;;;9.63;;
50781;SDS011;36749;37.428;-121.972;2022-09-11T16:11:48;27.40;;;8.68;;
50781;SDS011;36749;37.428;-121.972;2022-09-11T16:14:19;25.85;;;9.38;;
50781;SDS011;36749;37.428;-121.972;2022-09-11T16:16:52;21.38;;;8.43;;
50781;SDS011;36749;37.428;-121.972;2022-09-11T16:19:20;29.55;;;9.18;;
50781;SDS011;36749;37.428;-121.972;2022-09-11T16:21:47;31.23;;;9.68;;
50781;SDS011;36749;37.428;-121.972;2022-09-11T16:24:14;32.60;;;9.55;;
50781;SDS011;36749;37.428;-121.972;2022-09-11T16:26:41;26.90;;;9.98;;
50781;SDS011;36749;37.428;-121.972;2022-09-11T16:29:08;30.55;;;9.63;;